False Pass, Alaska
Current Conditions -  °F | °C
As of 3:01 PM on Sunday 21 Dec 2014 (Local Time) from PAKF Reporting Station
Overcast Overcast  
Wind Chill: 23°   Ceiling: 1900
Heat Index: 34°   Visibility: 10mi
Dew Point: 28°   Wind: 18mph
Humidity: 79%   Direction: 350°N
Pressure: 29.46"   Gusts: 26mph
Location:  54.85°N, 163.42°W
Report Text: PAKF 220001Z AUTO 35016G23KT 10SM OVC019 01/M02 A2946 RMK AO2 UPE2311 SLP071 P0000 60000 T00111022 10022 20011 51016 FZRANO $
Loading
Personal Weather Stations






























Interactive Weather Map New forecast layout! Learn more

10-Day Weather Forecast

Advertisements
Track Severe Weather on mobile